createdAt,value
2023-04-15T00:04:42.020Z,100538.91
2023-04-15T00:09:44.817Z,100553.34
2023-04-15T00:14:46.985Z,100558.88
2023-04-15T00:19:49.079Z,100555.00
2023-04-15T00:24:51.486Z,100555.47
2023-04-15T00:29:53.542Z,100559.47
2023-04-15T00:34:56.477Z,100569.38
2023-04-15T00:39:58.957Z,100576.03
2023-04-15T00:45:01.334Z,100568.69
2023-04-15T00:50:05.352Z,100582.13
2023-04-15T00:55:08.257Z,100590.66
2023-04-15T01:00:12.141Z,100595.41
2023-04-15T01:05:17.318Z,100608.03
2023-04-15T01:10:19.627Z,100603.19
2023-04-15T01:15:21.981Z,100609.66
2023-04-15T01:20:24.569Z,100616.00
2023-04-15T01:25:35.524Z,100619.19
2023-04-15T01:30:38.093Z,100613.13
2023-04-15T01:35:40.261Z,100620.47
2023-04-15T01:40:43.411Z,100630.09
2023-04-15T01:45:47.160Z,100638.88
2023-04-15T01:50:50.908Z,100643.53
2023-04-15T01:55:54.261Z,100645.63
2023-04-15T02:00:57.688Z,100651.03
2023-04-15T02:06:01.159Z,100655.59
2023-04-15T02:11:05.358Z,100655.84
2023-04-15T02:16:19.263Z,100661.66
2023-04-15T02:21:22.773Z,100669.47
2023-04-15T02:26:26.091Z,100667.78
2023-04-15T02:31:34.136Z,100680.97
2023-04-15T02:36:37.714Z,100689.63
2023-04-15T02:41:43.916Z,100672.31
2023-04-15T02:46:51.026Z,100705.50
2023-04-15T02:51:55.502Z,100712.41
2023-04-15T02:56:58.876Z,100724.47
2023-04-15T03:02:02.266Z,100716.31
2023-04-15T03:07:05.787Z,100729.22
2023-04-15T03:12:09.575Z,100733.34
2023-04-15T03:17:12.926Z,100736.47
2023-04-15T03:22:16.349Z,100740.59
2023-04-15T03:27:19.873Z,100735.16
2023-04-15T03:32:24.041Z,100748.53
2023-04-15T03:37:27.632Z,100740.97
2023-04-15T03:42:31.023Z,100750.91
2023-04-15T03:47:35.452Z,100760.84
2023-04-15T03:52:38.794Z,100758.69
2023-04-15T03:57:42.112Z,100763.66
2023-04-15T04:02:46.282Z,100746.91
2023-04-15T04:07:49.762Z,100782.72
2023-04-15T04:12:53.059Z,100777.38
2023-04-15T04:17:56.572Z,100785.72
2023-04-15T04:23:00.099Z,100786.00
2023-04-15T04:28:03.957Z,100788.22
2023-04-15T04:33:07.676Z,100787.31
2023-04-15T04:38:11.212Z,100798.03
2023-04-15T04:43:16.205Z,100794.63
2023-04-15T04:48:20.028Z,100793.88
2023-04-15T04:53:23.458Z,100799.06
2023-04-15T04:58:27.398Z,100792.78
2023-04-15T05:03:30.985Z,100802.75
2023-04-15T05:08:34.621Z,100799.78
2023-04-15T05:13:38.902Z,100803.78
2023-04-15T05:18:42.210Z,100798.22
2023-04-15T05:23:45.589Z,100799.69
2023-04-15T05:28:49.750Z,100802.28
2023-04-15T05:33:53.104Z,100804.06
2023-04-15T05:38:56.524Z,100806.97
2023-04-15T05:43:59.839Z,100809.56
2023-04-15T05:49:03.492Z,100784.53
2023-04-15T05:54:07.062Z,100813.06
2023-04-15T05:59:11.692Z,100810.25
2023-04-15T06:04:15.582Z,100818.84
2023-04-15T06:09:19.034Z,100829.75
2023-04-15T06:14:22.405Z,100839.59
2023-04-15T06:19:26.276Z,100833.63
2023-04-15T06:24:29.642Z,100828.91
2023-04-15T06:29:33.018Z,100837.69
2023-04-15T06:34:36.469Z,100823.94
2023-04-15T06:39:40.312Z,100826.41
2023-04-15T06:44:43.861Z,100833.28
2023-04-15T06:49:47.147Z,100839.03
2023-04-15T06:54:50.662Z,100841.38
2023-04-15T06:59:54.739Z,100829.13
2023-04-15T07:04:58.097Z,100846.31
2023-04-15T07:10:03.446Z,100832.59
2023-04-15T07:15:07.311Z,100823.16
2023-04-15T07:20:11.125Z,100850.16
2023-04-15T07:25:14.439Z,100838.06
2023-04-15T07:30:18.064Z,100840.25
2023-04-15T07:35:21.581Z,100837.84
2023-04-15T07:40:24.975Z,100840.63
2023-04-15T07:45:28.672Z,100831.50
2023-04-15T07:50:32.134Z,100828.06
2023-04-15T07:55:35.509Z,100829.75
2023-04-15T08:00:39.196Z,100827.88
2023-04-15T08:05:42.566Z,100829.06
2023-04-15T08:10:46.029Z,100823.91
2023-04-15T08:16:19.086Z,100822.28
2023-04-15T08:21:24.013Z,100817.03
2023-04-15T08:26:27.346Z,100814.09
2023-04-15T08:31:30.836Z,100819.72
2023-04-15T08:36:34.189Z,100796.88
2023-04-15T08:41:46.455Z,100821.16
2023-04-15T08:46:50.245Z,100805.72
2023-04-15T08:51:53.747Z,100805.25
2023-04-15T08:56:58.819Z,100797.78
2023-04-15T09:02:04.056Z,100806.09
2023-04-15T09:07:07.541Z,100780.91
2023-04-15T09:12:12.327Z,100790.09
2023-04-15T09:17:19.612Z,100791.00
2023-04-15T09:22:22.974Z,100781.13
2023-04-15T09:27:26.707Z,100788.53
2023-04-15T09:32:30.223Z,100774.75
2023-04-15T09:37:37.044Z,100768.09
2023-04-15T09:42:56.503Z,100783.81
2023-04-15T09:48:14.562Z,100782.09
2023-04-15T09:53:20.479Z,100793.69
2023-04-15T09:58:29.498Z,100784.28
2023-04-15T10:03:36.972Z,100778.19
2023-04-15T10:08:41.805Z,100775.78
2023-04-15T10:13:47.333Z,100787.78
2023-04-15T10:18:56.100Z,100778.06
2023-04-15T10:24:03.280Z,100774.13
2023-04-15T10:29:07.098Z,100774.84
2023-04-15T10:34:11.427Z,100756.94
2023-04-15T10:39:33.337Z,100779.66
2023-04-15T10:44:38.942Z,100775.56
2023-04-15T10:49:50.647Z,100769.09
2023-04-15T10:55:16.567Z,100774.28
2023-04-15T11:00:24.622Z,100778.19
2023-04-15T11:05:43.300Z,100766.44
2023-04-15T11:10:46.517Z,100763.69
2023-04-15T11:15:50.173Z,100769.34
2023-04-15T11:20:57.555Z,100762.16
2023-04-15T11:26:03.916Z,100759.97
2023-04-15T11:31:16.537Z,100753.97
2023-04-15T11:36:19.892Z,100746.34
2023-04-15T11:41:23.907Z,100750.19
2023-04-15T11:46:31.941Z,100745.31
2023-04-15T11:51:36.150Z,100733.47
2023-04-15T11:56:38.518Z,100731.38
2023-04-15T12:01:43.767Z,100723.09
2023-04-15T12:06:46.323Z,100712.19
2023-04-15T12:11:55.515Z,100710.41
2023-04-15T12:17:01.550Z,100712.91
2023-04-15T12:22:06.704Z,100709.84
2023-04-15T12:27:17.152Z,100717.34
2023-04-15T12:32:22.886Z,100713.06
2023-04-15T12:37:26.796Z,100712.16
2023-04-15T12:42:29.625Z,100708.19
2023-04-15T12:47:31.816Z,100707.31
2023-04-15T12:52:33.946Z,100700.88
2023-04-15T12:57:36.178Z,100709.47
2023-04-15T13:02:38.553Z,100690.34
2023-04-15T13:07:42.600Z,100700.44
2023-04-15T13:12:46.979Z,100706.88
2023-04-15T13:17:50.699Z,100705.34
2023-04-15T13:22:54.212Z,100707.22
2023-04-15T13:27:57.727Z,100705.72
2023-04-15T13:33:00.191Z,100680.97
2023-04-15T13:38:02.438Z,100706.03
2023-04-15T13:43:04.937Z,100701.53
2023-04-15T13:48:07.350Z,100707.31
2023-04-15T13:53:09.482Z,100711.91
2023-04-15T13:58:11.874Z,100697.16
2023-04-15T14:03:14.108Z,100684.25
2023-04-15T14:08:16.403Z,100699.53
2023-04-15T14:13:19.782Z,100694.00
2023-04-15T14:18:21.964Z,100695.75
2023-04-15T14:23:23.977Z,100681.88
2023-04-15T14:28:26.225Z,100698.41
2023-04-15T14:33:28.397Z,100685.09
2023-04-15T14:38:30.699Z,100690.41
2023-04-15T14:43:33.421Z,100693.69
2023-04-15T14:48:35.838Z,100694.50
2023-04-15T14:53:38.052Z,100694.06
2023-04-15T14:58:40.045Z,100694.81
2023-04-15T15:03:42.381Z,100684.66
2023-04-15T15:08:44.676Z,100687.88
2023-04-15T15:13:47.837Z,100677.63
2023-04-15T15:18:51.430Z,100678.56
2023-04-15T15:23:53.592Z,100675.97
2023-04-15T15:28:55.734Z,100676.63
2023-04-15T15:33:58.065Z,100683.84
2023-04-15T15:39:00.385Z,100689.47
2023-04-15T15:44:02.583Z,100684.41
2023-04-15T15:49:05.066Z,100693.63
2023-04-15T15:54:07.366Z,100689.34
2023-04-15T15:59:09.384Z,100682.47
2023-04-15T16:04:11.766Z,100683.50
2023-04-15T16:09:14.231Z,100688.81
2023-04-15T16:14:16.394Z,100670.09
2023-04-15T16:19:18.588Z,100672.28
2023-04-15T16:24:21.197Z,100704.81
2023-04-15T16:29:23.180Z,100701.00
2023-04-15T16:34:25.552Z,100698.19
2023-04-15T16:39:27.707Z,100682.34
2023-04-15T16:44:30.223Z,100699.69
2023-04-15T16:49:32.190Z,100705.56
2023-04-15T16:54:35.867Z,100707.22
2023-04-15T16:59:38.321Z,100706.69
2023-04-15T17:04:41.865Z,100701.25
2023-04-15T17:09:44.741Z,100713.94
2023-04-15T17:14:46.954Z,100698.66
2023-04-15T17:19:50.023Z,100698.91
2023-04-15T17:24:54.334Z,100702.25
2023-04-15T17:29:58.150Z,100713.97
2023-04-15T17:35:20.443Z,100714.56
2023-04-15T17:40:42.323Z,100716.75
2023-04-15T17:46:05.454Z,100714.09
2023-04-15T17:51:28.186Z,100731.25
2023-04-15T17:57:03.337Z,100729.97
2023-04-15T18:02:25.808Z,100733.69
2023-04-15T18:07:48.077Z,100735.34
2023-04-15T18:13:10.358Z,100721.94
2023-04-15T18:18:32.577Z,100734.41
2023-04-15T18:23:35.458Z,100744.75
2023-04-15T18:28:40.254Z,100740.91
2023-04-15T18:33:42.347Z,100720.22
2023-04-15T18:38:46.996Z,100743.38
2023-04-15T18:44:39.273Z,100737.25
2023-04-15T18:57:42.595Z,100748.81
2023-04-15T19:02:46.793Z,100756.28
2023-04-15T19:07:51.238Z,100757.94
2023-04-15T19:12:53.359Z,100758.47
2023-04-15T19:17:55.702Z,100762.09
2023-04-15T19:22:57.863Z,100768.22
2023-04-15T19:28:00.163Z,100762.00
2023-04-15T19:33:02.300Z,100762.34
2023-04-15T19:38:05.125Z,100755.91
2023-04-15T19:43:07.281Z,100766.97
2023-04-15T19:48:09.468Z,100775.31
2023-04-15T19:53:11.664Z,100770.53
2023-04-15T19:58:13.830Z,100772.69
2023-04-15T20:03:16.397Z,100775.59
2023-04-15T20:08:19.013Z,100784.72
2023-04-15T20:13:21.138Z,100786.94
2023-04-15T20:18:23.376Z,100798.56
2023-04-15T20:23:25.721Z,100784.00
2023-04-15T20:28:27.890Z,100818.13
2023-04-15T20:33:29.904Z,100796.69
2023-04-15T20:38:32.085Z,100769.13
2023-04-15T20:43:34.164Z,100816.38
2023-04-15T20:48:36.159Z,100812.91
2023-04-15T20:53:38.261Z,100819.03
2023-04-15T20:58:40.455Z,100812.44
2023-04-15T21:03:42.836Z,100810.75
2023-04-15T21:08:45.041Z,100817.47
2023-04-15T21:13:47.156Z,100820.34
2023-04-15T21:18:49.379Z,100820.47
2023-04-15T21:23:51.550Z,100820.47
2023-04-15T21:28:53.709Z,100809.44
2023-04-15T21:33:56.130Z,100823.72
2023-04-15T21:38:58.294Z,100831.19
2023-04-15T21:44:00.515Z,100830.47
2023-04-15T21:49:02.444Z,100833.13
2023-04-15T21:54:04.572Z,100846.88
2023-04-15T21:59:06.970Z,100849.56
2023-04-15T22:04:11.194Z,100852.31
2023-04-15T22:09:14.316Z,100859.63
2023-04-15T22:14:16.891Z,100864.41
2023-04-15T22:19:19.104Z,100858.53
2023-04-15T22:24:32.746Z,100853.97
2023-04-15T22:29:41.871Z,100868.34
2023-04-15T22:34:44.044Z,100873.63
2023-04-15T22:39:46.538Z,100861.66
2023-04-15T22:44:50.071Z,100867.41
2023-04-15T22:49:52.188Z,100878.91
2023-04-15T22:54:54.329Z,100874.31
2023-04-15T22:59:56.632Z,100871.94
2023-04-15T23:04:58.839Z,100885.94
2023-04-15T23:10:01.514Z,100896.25
2023-04-15T23:15:04.139Z,100894.91
2023-04-15T23:20:09.498Z,100877.66
2023-04-15T23:25:11.599Z,100894.91
2023-04-15T23:30:13.813Z,100887.34
2023-04-15T23:35:16.764Z,100896.75
2023-04-15T23:40:18.910Z,100906.72
2023-04-15T23:45:21.046Z,100902.19
2023-04-15T23:50:23.329Z,100907.69
2023-04-15T23:55:25.615Z,100907.41
